EYW weather

Key West International Airport
Key West, Florida, United States

Public forecast

Using degrees Fahrenheit for public forecast. Weather courtesy of forecast.io.

Current aviation weather report (METAR) for Key West International Airport

Retrieved 2019/12/06 10:53 UTC (2 hours ago):

KEYW 061053Z AUTO 07005KT 10SM CLR 18/13 A3014 RMK AO2 SLP207 T01830128

Aviation forecast (TAF) for Key West International Airport

Retrieved 2019/12/06 12:36 UTC (12 minutes ago):

TAF KEYW 061134Z 0612/0712 06005KT P6SM SKC FM070000 02005KT P6SM SCT030 SCT250